Aroda, Virginia
Current Conditions -  °F | °C
As of 3:35 PM on Wednesday 26 Nov 2014 (Local Time) from KOMH Reporting Station
Light Rain Light Rain  
Wind Chill:   Ceiling: 1900
Heat Index:   Visibility: 5mi
Dew Point:   Wind: 5mph
Humidity: 93%   Direction: 310°NW
Pressure: 29.98"   Gusts: NA
Location:  38.33°N, 78.24°W
Report Text: KOMH 262035Z AUTO 31004KT 5SM -RA BKN019 BKN027 OVC032 02/01 A2998 RMK AO2 P0001
Loading
Personal Weather Stations






























Interactive Weather Map New forecast layout! Learn more

10-Day Weather Forecast

Advertisements
Track Severe Weather on mobile